UAL195 EDDM-KSFO
Flight info
| Callsign | UAL195 |
|---|---|
| Flight time | N/A |
| Altitude | 32000 |
| Route | INPUD2N/26R INPUD Y102 UPALA Z109 BAMAS L604 GASKA DCT ELNAT DCT OMIMA DCT ATNAK DCT GUNPA/M083F320 DCT 66N010W/M083F340 70N020W 73N040W 73N060W DCT MEDPA/N0471F340 DCT 71N080W 6830N09000W/N0477F360 65N100W 62N105W DCT YMM DCT WELLF DCT ONSET/N0468F380 DCT BRUKK DCT RBL/N0465F370 DCT MRRLO BDEGA4 |
| Aircraft | B77W/H-SDE1E2E3FGHIJ2J3J4J5M1RWXY/LB1D1 |
Departure
| Time | 2026-05-06 18:29 |
|---|---|
| Airport | Munich Airport (EDDM) |
Arrival
| Time | N/A |
|---|---|
| Airport | San Francisco International Airport (KSFO) |
| Time | Latitude | Longitude | Altitude | Speed | Heading |
|---|---|---|---|---|---|
| 2026-05-06 17:24 | 48.35788 | 11.79249 | 1490 ft | 0 kts | 263° |
| 2026-05-06 18:05 | 48.35788 | 11.79250 | 1447 ft | 1 kts | 263° |
| 2026-05-06 18:06 | 48.35791 | 11.79286 | 1475 ft | 4 kts | 263° |
| 2026-05-06 18:06 | 48.35794 | 11.79325 | 1475 ft | 3 kts | 263° |
| 2026-05-06 18:06 | 48.35795 | 11.79358 | 1475 ft | 4 kts | 278° |
| 2026-05-06 18:06 | 48.35786 | 11.79391 | 1475 ft | 4 kts | 328° |
| 2026-05-06 18:07 | 48.35763 | 11.79400 | 1475 ft | 4 kts | 353° |
| 2026-05-06 18:07 | 48.35741 | 11.79404 | 1475 ft | 0 kts | 353° |
| 2026-05-06 18:13 | 48.35755 | 11.79402 | 1483 ft | 5 kts | 353° |
| 2026-05-06 18:13 | 48.35817 | 11.79391 | 1488 ft | 11 kts | 353° |
| 2026-05-06 18:13 | 48.35887 | 11.79415 | 1475 ft | 11 kts | 46° |
| 2026-05-06 18:14 | 48.35938 | 11.79492 | 1477 ft | 8 kts | 18° |
| 2026-05-06 18:14 | 48.35987 | 11.79495 | 1488 ft | 5 kts | 353° |
| 2026-05-06 18:14 | 48.36012 | 11.79492 | 1477 ft | 3 kts | 354° |
| 2026-05-06 18:14 | 48.36028 | 11.79489 | 1486 ft | 1 kts | 354° |
| 2026-05-06 18:15 | 48.36036 | 11.79488 | 1483 ft | 0 kts | 354° |
| 2026-05-06 18:15 | 48.36072 | 11.79482 | 1483 ft | 13 kts | 353° |
| 2026-05-06 18:15 | 48.36120 | 11.79473 | 1486 ft | 0 kts | 353° |
| 2026-05-06 18:16 | 48.36121 | 11.79473 | 1486 ft | 1 kts | 353° |
| 2026-05-06 18:16 | 48.36147 | 11.79468 | 1484 ft | 7 kts | 353° |
| 2026-05-06 18:16 | 48.36199 | 11.79408 | 1477 ft | 13 kts | 285° |
| 2026-05-06 18:16 | 48.36196 | 11.79248 | 1490 ft | 18 kts | 264° |
| 2026-05-06 18:17 | 48.36180 | 11.79039 | 1490 ft | 21 kts | 263° |
| 2026-05-06 18:17 | 48.36163 | 11.78818 | 1478 ft | 21 kts | 263° |
| 2026-05-06 18:17 | 48.36146 | 11.78598 | 1486 ft | 21 kts | 263° |
| 2026-05-06 18:17 | 48.36073 | 11.78497 | 1477 ft | 14 kts | 172° |
| 2026-05-06 18:18 | 48.36040 | 11.78613 | 1487 ft | 13 kts | 87° |
| 2026-05-06 18:18 | 48.36046 | 11.78706 | 1490 ft | 13 kts | 83° |
| 2026-05-06 18:18 | 48.36056 | 11.78844 | 1482 ft | 13 kts | 83° |
| 2026-05-06 18:18 | 48.36067 | 11.78982 | 1480 ft | 13 kts | 83° |
| 2026-05-06 18:19 | 48.36078 | 11.79120 | 1478 ft | 13 kts | 83° |
| 2026-05-06 18:19 | 48.36084 | 11.79201 | 1486 ft | 0 kts | 83° |
| 2026-05-06 18:20 | 48.36085 | 11.79209 | 1484 ft | 3 kts | 83° |
| 2026-05-06 18:21 | 48.36105 | 11.79287 | 1476 ft | 13 kts | 41° |
| 2026-05-06 18:21 | 48.36200 | 11.79361 | 1482 ft | 17 kts | 66° |
| 2026-05-06 18:21 | 48.36219 | 11.79547 | 1486 ft | 19 kts | 84° |
| 2026-05-06 18:21 | 48.36232 | 11.79744 | 1481 ft | 19 kts | 82° |
| 2026-05-06 18:22 | 48.36250 | 11.79944 | 1479 ft | 19 kts | 83° |
| 2026-05-06 18:22 | 48.36266 | 11.80144 | 1476 ft | 19 kts | 83° |
| 2026-05-06 18:22 | 48.36281 | 11.80344 | 1477 ft | 19 kts | 83° |
| 2026-05-06 18:22 | 48.36296 | 11.80544 | 1482 ft | 19 kts | 83° |
| 2026-05-06 18:23 | 48.36311 | 11.80746 | 1480 ft | 20 kts | 83° |
| 2026-05-06 18:23 | 48.36328 | 11.80956 | 1490 ft | 21 kts | 83° |
| 2026-05-06 18:23 | 48.36347 | 11.81174 | 1483 ft | 21 kts | 82° |
| 2026-05-06 18:23 | 48.36364 | 11.81399 | 1486 ft | 22 kts | 84° |
| 2026-05-06 18:24 | 48.36381 | 11.81630 | 1477 ft | 22 kts | 84° |
| 2026-05-06 18:24 | 48.36397 | 11.81861 | 1490 ft | 21 kts | 89° |
| 2026-05-06 18:24 | 48.36396 | 11.82060 | 1482 ft | 16 kts | 81° |
| 2026-05-06 18:24 | 48.36455 | 11.82136 | 1481 ft | 9 kts | 359° |
| 2026-05-06 18:25 | 48.36509 | 11.82128 | 1484 ft | 8 kts | 354° |
| 2026-05-06 18:25 | 48.36548 | 11.82121 | 1479 ft | 0 kts | 354° |
| 2026-05-06 18:27 | 48.36573 | 11.82113 | 1476 ft | 10 kts | 344° |
| 2026-05-06 18:27 | 48.36661 | 11.82010 | 1482 ft | 16 kts | 295° |
| 2026-05-06 18:28 | 48.36669 | 11.81874 | 1486 ft | 9 kts | 264° |
| 2026-05-06 18:28 | 48.36668 | 11.81857 | 1477 ft | 1 kts | 264° |
| 2026-05-06 18:28 | 48.36658 | 11.81729 | 1487 ft | 35 kts | 264° |
| 2026-05-06 18:28 | 48.36603 | 11.81016 | 1482 ft | 100 kts | 263° |
| 2026-05-06 18:29 | 48.36499 | 11.79684 | 1481 ft | 154 kts | 263° |
| 2026-05-06 18:29 | 48.36353 | 11.77867 | 1533 ft | 189 kts | 263° |
| 2026-05-06 18:29 | 48.36212 | 11.75884 | 1978 ft | 194 kts | 265° |
| 2026-05-06 18:29 | 48.36061 | 11.73846 | 2590 ft | 194 kts | 261° |
| 2026-05-06 18:30 | 48.35848 | 11.71842 | 3250 ft | 196 kts | 260° |
| 2026-05-06 18:30 | 48.35807 | 11.69720 | 3402 ft | 213 kts | 285° |
| 2026-05-06 18:30 | 48.36581 | 11.67745 | 3804 ft | 227 kts | 307° |
| 2026-05-06 18:30 | 48.37608 | 11.65914 | 4225 ft | 233 kts | 306° |
| 2026-05-06 18:31 | 48.38881 | 11.64334 | 4564 ft | 248 kts | 334° |
| 2026-05-06 18:31 | 48.40633 | 11.63949 | 4967 ft | 262 kts | 354° |
| 2026-05-06 18:31 | 48.42473 | 11.63811 | 5476 ft | 266 kts | 348° |
| 2026-05-06 18:31 | 48.44308 | 11.63427 | 6136 ft | 268 kts | 346° |
| 2026-05-06 18:32 | 48.46173 | 11.62924 | 6647 ft | 274 kts | 343° |
| 2026-05-06 18:32 | 48.48062 | 11.62380 | 7210 ft | 279 kts | 343° |
| 2026-05-06 18:32 | 48.49984 | 11.61820 | 7805 ft | 284 kts | 345° |
| 2026-05-06 18:32 | 48.51917 | 11.61255 | 8371 ft | 288 kts | 345° |
| 2026-05-06 18:33 | 48.53892 | 11.60672 | 8954 ft | 291 kts | 345° |
| 2026-05-06 18:33 | 48.55920 | 11.60075 | 9556 ft | 293 kts | 345° |
| 2026-05-06 18:33 | 48.57913 | 11.59409 | 9834 ft | 295 kts | 338° |
| 2026-05-06 18:33 | 48.59845 | 11.58291 | 9987 ft | 309 kts | 333° |
| 2026-05-06 18:34 | 48.61896 | 11.56986 | 10144 ft | 330 kts | 334° |
| 2026-05-06 18:34 | 48.64120 | 11.55621 | 10309 ft | 351 kts | 335° |
| 2026-05-06 18:34 | 48.66454 | 11.54234 | 10535 ft | 369 kts | 335° |
| 2026-05-06 18:34 | 48.68884 | 11.52816 | 11005 ft | 379 kts | 336° |
| 2026-05-06 18:35 | 48.71371 | 11.51377 | 11623 ft | 386 kts | 336° |
| 2026-05-06 18:35 | 48.73890 | 11.49922 | 12418 ft | 388 kts | 336° |
| 2026-05-06 18:35 | 48.76417 | 11.48462 | 13230 ft | 390 kts | 337° |
| 2026-05-06 18:35 | 48.78944 | 11.47015 | 13889 ft | 395 kts | 338° |
| 2026-05-06 18:36 | 48.81583 | 11.45734 | 14497 ft | 401 kts | 341° |
| 2026-05-06 18:36 | 48.84281 | 11.44582 | 15148 ft | 405 kts | 342° |
| 2026-05-06 18:36 | 48.87023 | 11.43455 | 15780 ft | 410 kts | 342° |
| 2026-05-06 18:36 | 48.89798 | 11.42313 | 16382 ft | 415 kts | 342° |
| 2026-05-06 18:37 | 48.92599 | 11.41146 | 17037 ft | 419 kts | 342° |
| 2026-05-06 18:37 | 48.95424 | 11.39952 | 17728 ft | 423 kts | 342° |
| 2026-05-06 18:37 | 48.98267 | 11.38735 | 18378 ft | 425 kts | 342° |
| 2026-05-06 18:37 | 49.01120 | 11.37505 | 18972 ft | 428 kts | 342° |
| 2026-05-06 18:38 | 49.04001 | 11.36259 | 19478 ft | 433 kts | 342° |
| 2026-05-06 18:38 | 49.06919 | 11.34992 | 20002 ft | 438 kts | 342° |
| 2026-05-06 18:38 | 49.09862 | 11.33714 | 20530 ft | 442 kts | 342° |
| 2026-05-06 18:38 | 49.12835 | 11.32427 | 21075 ft | 446 kts | 342° |
| 2026-05-06 18:39 | 49.15833 | 11.31130 | 21596 ft | 450 kts | 342° |
| 2026-05-06 18:39 | 49.18857 | 11.29815 | 22113 ft | 454 kts | 342° |
| 2026-05-06 18:39 | 49.21906 | 11.28484 | 22683 ft | 456 kts | 342° |
| 2026-05-06 18:40 | 49.28048 | 11.25794 | 23665 ft | 463 kts | 341° |
| 2026-05-06 18:40 | 49.31164 | 11.24426 | 24052 ft | 468 kts | 341° |
| 2026-05-06 18:40 | 49.34308 | 11.23045 | 24443 ft | 471 kts | 341° |
| 2026-05-06 18:40 | 49.37474 | 11.21653 | 24839 ft | 475 kts | 341° |
| 2026-05-06 18:41 | 49.40663 | 11.20248 | 25199 ft | 480 kts | 342° |
| 2026-05-06 18:41 | 49.43902 | 11.18821 | 25464 ft | 487 kts | 342° |
| 2026-05-06 18:41 | 49.47167 | 11.17380 | 25863 ft | 489 kts | 341° |
| 2026-05-06 18:41 | 49.50447 | 11.15929 | 26291 ft | 491 kts | 341° |
| 2026-05-06 18:42 | 49.53770 | 11.14458 | 26676 ft | 494 kts | 341° |
| 2026-05-06 18:42 | 49.57045 | 11.13009 | 27018 ft | 498 kts | 342° |
| 2026-05-06 18:42 | 49.60433 | 11.11735 | 27353 ft | 503 kts | 347° |
| 2026-05-06 18:42 | 49.63900 | 11.10825 | 27681 ft | 506 kts | 349° |
| 2026-05-06 18:43 | 49.67384 | 11.09975 | 28031 ft | 508 kts | 349° |
| 2026-05-06 18:43 | 49.70881 | 11.09112 | 28484 ft | 508 kts | 348° |
| 2026-05-06 18:43 | 49.74376 | 11.08216 | 28823 ft | 510 kts | 348° |
| 2026-05-06 18:43 | 49.77885 | 11.07291 | 29141 ft | 512 kts | 348° |
| 2026-05-06 18:44 | 49.81403 | 11.06356 | 29530 ft | 513 kts | 348° |
| 2026-05-06 18:44 | 49.84862 | 11.05122 | 29728 ft | 511 kts | 338° |
| 2026-05-06 18:44 | 49.88093 | 11.02876 | 29899 ft | 508 kts | 326° |
| 2026-05-06 18:44 | 49.90987 | 10.99807 | 30345 ft | 498 kts | 316° |
| 2026-05-06 18:45 | 49.93440 | 10.96148 | 30961 ft | 484 kts | 308° |
| 2026-05-06 18:45 | 49.95722 | 10.92294 | 31258 ft | 485 kts | 308° |
| 2026-05-06 18:45 | 49.98107 | 10.88550 | 31518 ft | 490 kts | 314° |
| 2026-05-06 18:45 | 49.99866 | 10.86222 | 31704 ft | 493 kts | 317° |
| 2026-05-06 18:46 | 50.03635 | 10.82147 | 31774 ft | 502 kts | 324° |
| 2026-05-06 18:46 | 50.09576 | 10.76639 | 31785 ft | 498 kts | 325° |
| 2026-05-06 18:47 | 50.15517 | 10.71139 | 31802 ft | 495 kts | 324° |
| 2026-05-06 18:47 | 50.21409 | 10.65590 | 31790 ft | 494 kts | 324° |
| 2026-05-06 18:48 | 50.27276 | 10.60003 | 31808 ft | 493 kts | 324° |
| 2026-05-06 18:48 | 50.33135 | 10.54404 | 31796 ft | 493 kts | 324° |
| 2026-05-06 18:49 | 50.38988 | 10.48798 | 31784 ft | 493 kts | 324° |
| 2026-05-06 18:49 | 50.44727 | 10.43289 | 31793 ft | 492 kts | 324° |
| 2026-05-06 18:50 | 50.50561 | 10.37673 | 31788 ft | 492 kts | 324° |
| 2026-05-06 18:50 | 50.56399 | 10.32036 | 31788 ft | 491 kts | 324° |
| 2026-05-06 18:51 | 50.62220 | 10.26396 | 31793 ft | 491 kts | 324° |
| 2026-05-06 18:51 | 50.68027 | 10.20757 | 31783 ft | 490 kts | 324° |
| 2026-05-06 18:52 | 50.73824 | 10.15109 | 31787 ft | 489 kts | 324° |
| 2026-05-06 18:52 | 50.78632 | 10.10413 | 31784 ft | 489 kts | 324° |
| 2026-05-06 18:53 | 50.84409 | 10.04754 | 31795 ft | 488 kts | 324° |
| 2026-05-06 18:53 | 50.90186 | 9.99077 | 31799 ft | 489 kts | 324° |
| 2026-05-06 18:54 | 50.95966 | 9.93380 | 31820 ft | 489 kts | 324° |
| 2026-05-06 18:54 | 51.01706 | 9.87707 | 31809 ft | 489 kts | 324° |
| 2026-05-06 18:55 | 51.07484 | 9.81978 | 31802 ft | 489 kts | 324° |
| 2026-05-06 18:55 | 51.13256 | 9.76236 | 31807 ft | 489 kts | 324° |
| 2026-05-06 18:56 | 51.19040 | 9.70662 | 31809 ft | 484 kts | 330° |
| 2026-05-06 18:56 | 51.24922 | 9.65657 | 31816 ft | 477 kts | 333° |
| 2026-05-06 18:57 | 51.30947 | 9.61291 | 31802 ft | 471 kts | 335° |
| 2026-05-06 18:57 | 51.36898 | 9.57090 | 31831 ft | 463 kts | 335° |
| 2026-05-06 18:58 | 51.42731 | 9.52848 | 31826 ft | 457 kts | 334° |
| 2026-05-06 18:58 | 51.48462 | 9.48597 | 31828 ft | 451 kts | 334° |
| 2026-05-06 18:59 | 51.54116 | 9.44377 | 31813 ft | 445 kts | 334° |
| 2026-05-06 18:59 | 51.59697 | 9.40203 | 31814 ft | 439 kts | 334° |
| 2026-05-06 19:00 | 51.65206 | 9.36075 | 31810 ft | 433 kts | 334° |
| 2026-05-06 19:00 | 51.70637 | 9.31992 | 31832 ft | 427 kts | 335° |
| 2026-05-06 19:01 | 51.75997 | 9.27949 | 31813 ft | 423 kts | 335° |